Time;durP1;ratioP1;P1;durP2;ratioP2;P2;SDS_P1;SDS_P2;PMS_P1;PMS_P2;Temp;Humidity;BMP_temperature;BMP_pressure;BME280_temperature;BME280_humidity;BME280_pressure;Samples;Min_cycle;Max_cycle;Signal;HPM_P1;HPM_P2
2024/03/03 00:01:26;;;;;;;16.90;16.40;;;22.80;1.00;;;;;;2608469;54;20170;-67
2024/03/03 00:03:52;;;;;;;16.60;16.10;;;22.80;1.00;;;;;;2608886;54;20396;-68
2024/03/03 00:06:18;;;;;;;16.20;15.70;;;22.80;1.00;;;;;;2608477;54;20265;-68
2024/03/03 00:08:43;;;;;;;16.37;15.87;;;22.80;1.00;;;;;;2610346;54;20702;-68
2024/03/03 00:11:09;;;;;;;16.80;16.30;;;22.80;1.00;;;;;;2609942;54;20160;-68
2024/03/03 00:13:34;;;;;;;16.70;16.20;;;22.80;1.00;;;;;;2609419;39;20476;-68
2024/03/03 00:16:03;;;;;;;16.40;15.90;;;22.80;1.00;;;;;;2608731;54;20307;-68
2024/03/03 00:18:28;;;;;;;16.80;16.30;;;22.80;1.00;;;;;;2610456;39;20594;-68
2024/03/03 00:20:54;;;;;;;15.83;15.33;;;22.80;1.00;;;;;;2610107;54;20397;-68
2024/03/03 00:23:19;;;;;;;16.00;15.50;;;22.80;1.00;;;;;;2610396;54;20146;-68
2024/03/03 00:25:45;;;;;;;16.03;15.53;;;22.80;1.00;;;;;;2609571;54;20272;-68
2024/03/03 00:28:10;;;;;;;17.20;16.67;;;22.80;1.00;;;;;;2609888;54;20146;-68
2024/03/03 00:30:36;;;;;;;16.60;16.10;;;22.70;1.00;;;;;;2609764;54;20165;-68
2024/03/03 00:33:02;;;;;;;15.87;15.37;;;22.70;1.00;;;;;;2609141;54;20201;-67
2024/03/03 00:35:28;;;;;;;16.70;16.20;;;22.70;1.00;;;;;;2609900;54;20242;-67
2024/03/03 00:37:53;;;;;;;16.53;16.03;;;22.70;1.00;;;;;;2609920;54;20257;-68
2024/03/03 00:40:19;;;;;;;16.30;15.80;;;22.70;1.00;;;;;;2610450;54;20210;-64
2024/03/03 00:42:45;;;;;;;16.70;16.20;;;22.70;1.00;;;;;;2610283;54;20728;-65
2024/03/03 00:45:11;;;;;;;16.63;16.13;;;22.70;1.00;;;;;;2610526;54;20286;-65
2024/03/03 00:47:37;;;;;;;16.70;16.20;;;22.60;1.00;;;;;;2610711;54;20157;-66
2024/03/03 00:50:03;;;;;;;16.80;16.30;;;22.60;1.00;;;;;;2607922;54;20456;-65
2024/03/03 00:52:28;;;;;;;16.90;16.40;;;22.60;1.00;;;;;;2610629;47;20176;-64
2024/03/03 00:54:54;;;;;;;17.07;16.57;;;22.70;1.00;;;;;;2609873;39;20470;-65
2024/03/03 00:57:20;;;;;;;16.87;16.37;;;22.60;1.00;;;;;;2608981;47;20174;-66
2024/03/03 00:59:45;;;;;;;16.10;15.60;;;22.60;1.00;;;;;;2610287;54;20153;-63
2024/03/03 01:02:11;;;;;;;17.20;16.70;;;22.60;1.00;;;;;;2607819;54;20219;-62
2024/03/03 01:04:37;;;;;;;16.60;16.10;;;22.60;1.00;;;;;;2608452;54;20285;-62
2024/03/03 01:07:03;;;;;;;16.80;16.30;;;22.60;1.00;;;;;;2608491;54;20155;-63
2024/03/03 01:09:29;;;;;;;16.00;15.50;;;22.60;1.00;;;;;;2607950;39;20439;-62
2024/03/03 01:11:54;;;;;;;16.37;15.87;;;22.60;1.00;;;;;;2609138;47;20432;-62
2024/03/03 01:14:23;;;;;;;15.80;15.30;;;22.60;1.00;;;;;;2609268;54;20434;-62
2024/03/03 01:16:49;;;;;;;16.70;16.20;;;22.60;1.00;;;;;;2609070;54;20171;-62
2024/03/03 01:19:15;;;;;;;16.70;16.20;;;22.60;1.00;;;;;;2609662;54;20406;-62
2024/03/03 01:21:40;;;;;;;16.17;15.67;;;22.50;1.00;;;;;;2608679;54;20394;-62
2024/03/03 01:24:07;;;;;;;16.30;15.80;;;22.60;1.00;;;;;;2609696;54;20175;-62
2024/03/03 01:26:33;;;;;;;16.80;16.30;;;22.60;1.00;;;;;;2609418;54;20172;-62
2024/03/03 01:28:58;;;;;;;16.40;15.90;;;22.60;1.00;;;;;;2609092;39;20834;-63
2024/03/03 01:31:24;;;;;;;16.70;16.20;;;22.50;1.00;;;;;;2607109;54;20167;-62
2024/03/03 01:33:49;;;;;;;16.40;15.90;;;22.50;1.00;;;;;;2607954;54;20175;-61
2024/03/03 01:36:16;;;;;;;16.20;15.70;;;22.50;1.00;;;;;;2608141;54;20550;-62
2024/03/03 01:38:41;;;;;;;17.87;17.27;;;22.50;1.00;;;;;;2608021;54;20166;-61
2024/03/03 01:41:07;;;;;;;18.03;17.43;;;22.50;1.00;;;;;;2608933;54;20414;-62
2024/03/03 01:43:33;;;;;;;16.70;16.20;;;22.50;1.00;;;;;;2608319;54;20727;-62
2024/03/03 01:45:59;;;;;;;16.70;16.20;;;22.50;1.00;;;;;;2607906;54;20387;-62
2024/03/03 01:48:25;;;;;;;16.53;16.03;;;22.50;1.00;;;;;;2608143;54;20458;-62
2024/03/03 01:50:52;;;;;;;17.10;16.60;;;22.50;1.00;;;;;;2609435;54;20837;-62
2024/03/03 01:53:18;;;;;;;16.30;15.80;;;22.50;1.00;;;;;;2610259;54;20423;-62
2024/03/03 01:55:45;;;;;;;16.70;16.20;;;22.50;1.00;;;;;;2609631;54;20434;-61
2024/03/03 01:58:12;;;;;;;16.60;16.10;;;22.50;1.00;;;;;;2611136;39;20788;-61
2024/03/03 02:00:38;;;;;;;16.80;16.30;;;22.50;1.00;;;;;;2609175;54;21326;-63
2024/03/03 02:03:08;;;;;;;16.70;16.20;;;22.50;1.00;;;;;;2610681;54;20401;-62
2024/03/03 02:05:36;;;;;;;17.13;16.60;;;22.50;1.00;;;;;;2608819;54;20435;-62
2024/03/03 02:08:03;;;;;;;16.53;16.03;;;22.50;1.00;;;;;;2607567;54;20395;-62
2024/03/03 02:10:30;;;;;;;16.17;15.67;;;22.50;1.00;;;;;;2608109;47;20421;-68
2024/03/03 02:12:56;;;;;;;16.40;15.90;;;22.50;1.00;;;;;;2609042;54;20995;-68
2024/03/03 02:15:22;;;;;;;16.17;15.67;;;22.50;1.00;;;;;;2607453;54;20415;-68
2024/03/03 02:17:49;;;;;;;16.20;15.70;;;22.50;1.00;;;;;;2607727;54;20199;-68
2024/03/03 02:20:15;;;;;;;16.50;16.00;;;22.40;1.00;;;;;;2608146;54;20935;-67
2024/03/03 02:22:41;;;;;;;16.20;15.70;;;22.40;1.00;;;;;;2608834;54;20480;-67
2024/03/03 02:25:09;;;;;;;15.80;15.30;;;22.40;1.00;;;;;;2609217;54;20142;-68
2024/03/03 02:27:36;;;;;;;16.10;15.60;;;22.40;1.00;;;;;;2609667;39;20816;-68
2024/03/03 02:30:05;;;;;;;15.40;14.90;;;22.40;1.00;;;;;;2608307;54;21036;-68
2024/03/03 02:32:31;;;;;;;16.20;15.70;;;22.40;1.00;;;;;;2608704;54;20441;-68
2024/03/03 02:34:57;;;;;;;15.30;14.80;;;22.40;1.00;;;;;;2608900;39;20882;-67
2024/03/03 02:37:22;;;;;;;16.60;16.10;;;22.40;1.00;;;;;;2608600;54;20685;-67
2024/03/03 02:39:48;;;;;;;16.43;15.93;;;22.40;1.00;;;;;;2608548;54;20254;-67
2024/03/03 02:42:13;;;;;;;17.00;16.50;;;22.30;1.00;;;;;;2609257;54;20143;-69
2024/03/03 02:44:39;;;;;;;16.40;15.90;;;22.30;1.00;;;;;;2608913;54;20159;-68
2024/03/03 02:47:05;;;;;;;16.83;16.23;;;22.30;1.00;;;;;;2609892;39;20532;-67
2024/03/03 02:49:30;;;;;;;16.40;15.90;;;22.30;1.00;;;;;;2609607;54;20150;-67
2024/03/03 02:51:56;;;;;;;16.20;15.70;;;22.40;1.00;;;;;;2608469;47;20725;-66
2024/03/03 02:54:22;;;;;;;16.80;16.30;;;22.30;1.00;;;;;;2608800;54;20143;-67
2024/03/03 02:56:49;;;;;;;16.70;16.20;;;22.40;1.00;;;;;;2609057;39;20552;-67
2024/03/03 02:59:15;;;;;;;16.30;15.80;;;22.30;1.00;;;;;;2609947;54;20531;-68
2024/03/03 03:01:41;;;;;;;16.23;15.73;;;22.40;1.00;;;;;;2609668;39;20879;-67
2024/03/03 03:04:06;;;;;;;15.90;15.40;;;22.40;1.00;;;;;;2609565;46;20463;-68
2024/03/03 03:06:32;;;;;;;15.90;15.40;;;22.40;1.00;;;;;;2608411;47;20518;-68
2024/03/03 03:08:57;;;;;;;15.60;15.10;;;22.40;1.00;;;;;;2610975;54;20153;-68
2024/03/03 03:11:24;;;;;;;15.70;15.20;;;22.30;1.00;;;;;;2612499;46;20200;-68
2024/03/03 03:13:50;;;;;;;16.10;15.60;;;22.30;1.00;;;;;;2611802;54;20180;-68
2024/03/03 03:16:16;;;;;;;15.83;15.33;;;22.30;1.00;;;;;;2612016;54;20496;-69
2024/03/03 03:18:45;;;;;;;15.67;15.17;;;22.30;1.00;;;;;;2612967;54;20142;-68
2024/03/03 03:21:10;;;;;;;15.90;15.40;;;22.30;1.00;;;;;;2610199;54;20155;-69
2024/03/03 03:23:36;;;;;;;15.97;15.47;;;22.30;1.00;;;;;;2612226;54;20403;-69
2024/03/03 03:26:02;;;;;;;16.40;15.90;;;22.30;1.00;;;;;;2609731;54;20268;-69
2024/03/03 03:28:28;;;;;;;16.00;15.50;;;22.30;1.00;;;;;;2612205;47;20482;-68
2024/03/03 03:30:53;;;;;;;17.00;16.50;;;22.20;1.00;;;;;;2612164;54;20159;-68
2024/03/03 03:33:19;;;;;;;16.00;15.50;;;22.20;1.00;;;;;;2611322;54;20151;-68
2024/03/03 03:35:44;;;;;;;15.40;14.90;;;22.20;1.00;;;;;;2611641;54;20191;-68
2024/03/03 03:38:10;;;;;;;15.50;15.00;;;22.30;1.00;;;;;;2611215;47;20167;-68
2024/03/03 03:40:36;;;;;;;15.97;15.47;;;22.20;1.00;;;;;;2611860;39;20414;-68
2024/03/03 03:43:05;;;;;;;15.80;15.30;;;22.30;1.00;;;;;;2612720;54;20262;-69
2024/03/03 03:45:31;;;;;;;16.07;15.57;;;22.20;1.00;;;;;;2608532;39;20589;-69
2024/03/03 03:47:57;;;;;;;16.30;15.80;;;22.20;1.00;;;;;;2609068;54;20412;-68
2024/03/03 03:50:22;;;;;;;15.87;15.37;;;22.20;1.00;;;;;;2609407;54;20407;-68
2024/03/03 03:52:48;;;;;;;15.87;15.37;;;22.20;1.00;;;;;;2609598;39;20701;-68
2024/03/03 03:55:14;;;;;;;15.70;15.20;;;22.20;1.00;;;;;;2609374;54;20154;-68
2024/03/03 03:57:40;;;;;;;15.00;14.50;;;22.20;1.00;;;;;;2608839;47;20481;-68
2024/03/03 04:00:06;;;;;;;15.40;14.90;;;22.20;1.00;;;;;;2608526;54;20154;-68
2024/03/03 04:02:32;;;;;;;16.00;15.50;;;22.20;1.00;;;;;;2607147;54;21109;-68
2024/03/03 04:04:58;;;;;;;16.47;15.97;;;22.20;1.00;;;;;;2608153;54;20432;-68
2024/03/03 04:07:23;;;;;;;16.60;16.10;;;22.20;1.00;;;;;;2608027;54;20267;-68
2024/03/03 04:09:49;;;;;;;16.00;15.50;;;22.20;1.00;;;;;;2608727;54;20410;-65
2024/03/03 04:12:15;;;;;;;16.57;16.07;;;22.20;1.00;;;;;;2608162;54;20254;-65
2024/03/03 04:14:41;;;;;;;16.60;16.10;;;22.20;1.00;;;;;;2608558;47;20182;-65
2024/03/03 04:17:06;;;;;;;16.13;15.63;;;22.20;1.00;;;;;;2608122;39;20259;-65
2024/03/03 04:19:32;;;;;;;16.40;15.90;;;22.20;1.00;;;;;;2607863;47;20571;-64
2024/03/03 04:21:58;;;;;;;16.60;16.10;;;22.20;1.00;;;;;;2609463;54;20162;-64
2024/03/03 04:24:23;;;;;;;15.90;15.40;;;22.30;1.00;;;;;;2607673;54;20404;-65
2024/03/03 04:26:49;;;;;;;15.90;15.40;;;22.20;1.00;;;;;;2608080;54;20192;-65
2024/03/03 04:29:14;;;;;;;15.80;15.30;;;22.20;1.00;;;;;;2609738;39;20636;-70
2024/03/03 04:31:43;;;;;;;16.60;16.10;;;22.20;1.00;;;;;;2608710;54;20153;-69
2024/03/03 04:34:10;;;;;;;15.60;15.10;;;22.20;1.00;;;;;;2609329;47;20166;-69
2024/03/03 04:36:36;;;;;;;16.80;16.30;;;22.20;1.00;;;;;;2610726;54;20439;-69
2024/03/03 04:39:03;;;;;;;16.70;16.20;;;22.20;1.00;;;;;;2610850;54;20975;-69
2024/03/03 04:41:31;;;;;;;16.90;16.40;;;22.20;1.00;;;;;;2611627;39;21040;-70
2024/03/03 04:43:57;;;;;;;16.30;15.80;;;22.20;1.00;;;;;;2612223;54;20392;-69
2024/03/03 04:46:22;;;;;;;16.00;15.50;;;22.20;1.00;;;;;;2610078;54;20424;-69
2024/03/03 04:48:48;;;;;;;16.43;15.93;;;22.20;1.00;;;;;;2607869;54;20193;-69
2024/03/03 04:51:14;;;;;;;16.20;15.70;;;22.20;1.00;;;;;;2609396;47;20181;-69
2024/03/03 04:53:40;;;;;;;16.50;16.00;;;22.20;1.00;;;;;;2609456;54;20157;-69
2024/03/03 04:56:06;;;;;;;16.57;16.07;;;22.20;1.00;;;;;;2608989;39;20699;-69
2024/03/03 04:58:32;;;;;;;16.30;15.80;;;22.20;1.00;;;;;;2608506;54;21041;-69
2024/03/03 05:00:58;;;;;;;16.63;16.13;;;22.20;1.00;;;;;;2608235;39;20572;-69
2024/03/03 05:03:27;;;;;;;17.23;16.70;;;22.20;1.00;;;;;;2608722;47;20446;-68
2024/03/03 05:05:53;;;;;;;17.40;16.80;;;22.20;1.00;;;;;;2607620;54;20210;-69
2024/03/03 05:08:18;;;;;;;16.27;15.77;;;22.20;1.00;;;;;;2609338;54;20381;-68
2024/03/03 05:10:44;;;;;;;17.13;16.53;;;22.20;1.00;;;;;;2608804;54;20167;-67
2024/03/03 05:13:10;;;;;;;15.80;15.30;;;22.20;1.00;;;;;;2609190;39;20585;-71
2024/03/03 05:15:36;;;;;;;15.90;15.40;;;22.20;1.00;;;;;;2607649;47;20171;-67
2024/03/03 05:18:01;;;;;;;16.60;16.10;;;22.20;1.00;;;;;;2607655;54;20712;-69
2024/03/03 05:20:27;;;;;;;16.50;16.00;;;22.20;1.00;;;;;;2609238;54;20421;-69
2024/03/03 05:22:53;;;;;;;16.17;15.67;;;22.20;1.00;;;;;;2610406;54;20420;-69
2024/03/03 05:25:18;;;;;;;16.00;15.50;;;22.20;1.00;;;;;;2609787;54;20246;-69
2024/03/03 05:27:44;;;;;;;17.33;16.73;;;22.20;1.00;;;;;;2607308;54;20145;-69
2024/03/03 05:30:10;;;;;;;16.47;15.97;;;22.20;1.00;;;;;;2609151;54;20177;-69
2024/03/03 05:32:36;;;;;;;16.60;16.10;;;22.20;1.00;;;;;;2608529;51;20162;-69
2024/03/03 05:35:01;;;;;;;16.10;15.60;;;22.20;1.00;;;;;;2606871;39;20304;-68
2024/03/03 05:37:27;;;;;;;15.90;15.40;;;22.30;1.00;;;;;;2606852;54;20839;-69
2024/03/03 05:39:52;;;;;;;16.10;15.60;;;22.30;1.00;;;;;;2607776;54;20163;-66
2024/03/03 05:42:18;;;;;;;16.43;15.93;;;22.30;1.00;;;;;;2605789;54;20133;-66
2024/03/03 05:44:44;;;;;;;16.40;15.90;;;22.30;1.00;;;;;;2606077;47;20666;-65
2024/03/03 05:47:10;;;;;;;15.57;15.07;;;22.30;1.00;;;;;;2607616;54;20159;-66
2024/03/03 05:49:39;;;;;;;16.80;16.30;;;22.30;1.00;;;;;;2608115;54;20181;-64
2024/03/03 05:52:04;;;;;;;17.40;16.83;;;22.30;1.00;;;;;;2606949;54;20247;-66
2024/03/03 05:54:30;;;;;;;16.70;16.20;;;22.30;1.00;;;;;;2608990;54;21356;-66
2024/03/03 05:56:56;;;;;;;16.37;15.87;;;22.30;1.00;;;;;;2605586;54;20159;-65
2024/03/03 05:59:21;;;;;;;16.20;15.70;;;22.30;1.00;;;;;;2607687;54;20165;-67
2024/03/03 06:01:50;;;;;;;15.83;15.33;;;22.30;1.00;;;;;;2606222;54;20149;-64
2024/03/03 06:04:16;;;;;;;16.60;16.00;;;22.30;1.00;;;;;;2607470;54;20170;-67
2024/03/03 06:06:42;;;;;;;16.17;15.67;;;22.30;1.00;;;;;;2606761;54;20396;-67
2024/03/03 06:09:10;;;;;;;16.00;15.50;;;22.30;1.00;;;;;;2608160;54;21035;-64
2024/03/03 06:11:37;;;;;;;15.47;14.97;;;22.30;1.00;;;;;;2606810;39;20569;-66
2024/03/03 06:14:03;;;;;;;16.13;15.63;;;22.30;1.00;;;;;;2606929;54;20394;-66
2024/03/03 06:16:29;;;;;;;16.40;15.90;;;22.30;1.00;;;;;;2607615;39;20694;-67
2024/03/03 06:18:55;;;;;;;16.70;16.20;;;22.30;1.00;;;;;;2605895;47;20417;-66
2024/03/03 06:21:21;;;;;;;16.30;15.80;;;22.30;1.00;;;;;;2607823;54;20419;-67
2024/03/03 06:23:47;;;;;;;14.80;14.30;;;22.30;1.00;;;;;;2608704;54;20150;-67
2024/03/03 06:26:16;;;;;;;15.43;14.93;;;22.30;1.00;;;;;;2607281;54;20496;-66
2024/03/03 06:28:44;;;;;;;15.63;15.13;;;22.30;1.00;;;;;;2609783;54;20305;-67
2024/03/03 06:31:11;;;;;;;14.43;14.03;;;22.30;1.00;;;;;;2607733;54;20522;-67
2024/03/03 06:33:37;;;;;;;16.17;15.67;;;22.30;1.00;;;;;;2610030;54;20410;-69
2024/03/03 06:36:03;;;;;;;16.90;16.30;;;22.30;1.00;;;;;;2607249;39;20873;-68
2024/03/03 06:38:28;;;;;;;15.80;15.30;;;22.30;1.00;;;;;;2609485;54;20539;-68
2024/03/03 06:40:54;;;;;;;15.97;15.47;;;22.30;1.00;;;;;;2610754;54;20213;-68
2024/03/03 06:43:20;;;;;;;15.87;15.37;;;22.30;1.00;;;;;;2609508;54;20671;-69
2024/03/03 06:45:46;;;;;;;15.93;15.43;;;22.30;1.00;;;;;;2608929;54;20790;-68
2024/03/03 06:48:12;;;;;;;15.63;15.13;;;22.30;1.00;;;;;;2608377;54;20461;-68
2024/03/03 06:50:38;;;;;;;16.50;16.00;;;22.30;1.00;;;;;;2607504;54;20407;-63
2024/03/03 06:53:04;;;;;;;15.70;15.20;;;22.30;1.00;;;;;;2607890;54;20391;-63
2024/03/03 06:55:30;;;;;;;15.63;15.13;;;22.30;1.00;;;;;;2610258;31;20871;-63
2024/03/03 06:57:55;;;;;;;15.70;15.20;;;22.30;1.00;;;;;;2610271;47;20415;-62
2024/03/03 07:00:21;;;;;;;15.23;14.73;;;22.30;1.00;;;;;;2608794;54;20292;-62
2024/03/03 07:05:31;;;;;;;16.70;16.20;;;22.40;1.00;;;;;;2607640;54;20175;-61
2024/03/03 07:07:57;;;;;;;16.60;16.10;;;22.40;1.00;;;;;;2607700;47;20433;-61
2024/03/03 07:10:23;;;;;;;15.30;14.80;;;22.40;1.00;;;;;;2606658;54;20181;-63
2024/03/03 07:12:49;;;;;;;15.40;14.90;;;22.40;1.00;;;;;;2609110;54;20427;-62
2024/03/03 07:15:15;;;;;;;16.13;15.63;;;22.30;1.00;;;;;;2607834;54;20277;-62
2024/03/03 07:17:42;;;;;;;16.17;15.67;;;22.40;1.00;;;;;;2607178;54;20187;-63
2024/03/03 07:20:08;;;;;;;16.20;15.70;;;22.40;1.00;;;;;;2608082;39;20573;-61
2024/03/03 07:22:35;;;;;;;15.90;15.40;;;22.40;1.00;;;;;;2608383;54;20426;-63
2024/03/03 07:25:04;;;;;;;16.20;15.70;;;22.40;1.00;;;;;;2607567;54;20476;-62
2024/03/03 07:27:30;;;;;;;16.20;15.70;;;22.30;1.00;;;;;;2605798;54;20439;-61
2024/03/03 07:29:56;;;;;;;17.23;16.67;;;22.40;1.00;;;;;;2606773;47;20444;-60
2024/03/03 07:32:22;;;;;;;26.90;25.90;;;22.50;1.00;;;;;;2609558;47;20497;-61
2024/03/03 07:34:49;;;;;;;26.60;25.50;;;22.70;1.00;;;;;;2609558;54;20431;-63
2024/03/03 07:37:16;;;;;;;17.60;17.00;;;22.90;1.00;;;;;;2609763;54;20914;-66
2024/03/03 07:39:42;;;;;;;18.47;17.87;;;23.10;1.00;;;;;;2611546;54;20427;-68
2024/03/03 07:42:08;;;;;;;10.90;10.60;;;23.50;1.00;;;;;;2609696;47;20424;-69
2024/03/03 07:44:34;;;;;;;11.77;11.37;;;23.70;1.00;;;;;;2611024;39;20815;-67
2024/03/03 07:47:00;;;;;;;11.60;11.20;;;23.80;1.00;;;;;;2611816;54;20435;-68
2024/03/03 07:49:25;;;;;;;11.90;11.50;;;24.00;1.00;;;;;;2610206;54;20173;-66
2024/03/03 07:51:51;;;;;;;11.83;11.43;;;24.00;1.00;;;;;;2611476;54;20257;-68
2024/03/03 07:54:17;;;;;;;10.57;10.27;;;24.10;1.00;;;;;;2611040;54;20135;-66
2024/03/03 07:56:43;;;;;;;11.53;11.23;;;24.20;1.00;;;;;;2611003;39;20558;-66
2024/03/03 07:59:09;;;;;;;5.07;4.87;;;24.20;1.00;;;;;;2610407;54;20161;-69
2024/03/03 08:01:35;;;;;;;5.60;5.40;;;23.90;1.00;;;;;;2609716;47;20552;-68
2024/03/03 08:04:02;;;;;;;4.83;4.63;;;23.70;1.00;;;;;;2611287;54;20462;-69
2024/03/03 08:06:28;;;;;;;4.90;4.70;;;23.50;1.00;;;;;;2610531;54;20426;-67
2024/03/03 08:08:53;;;;;;;4.47;4.37;;;23.40;1.00;;;;;;2610935;54;20404;-69
2024/03/03 08:11:19;;;;;;;12.90;12.50;;;23.20;1.00;;;;;;2609813;54;20224;-76
2024/03/03 08:13:45;;;;;;;15.30;14.80;;;23.40;1.00;;;;;;2610322;54;20164;-67
2024/03/03 08:16:11;;;;;;;13.43;13.03;;;23.80;1.00;;;;;;2610934;54;21818;-81
2024/03/03 08:18:36;;;;;;;13.30;12.90;;;24.20;1.00;;;;;;2612371;47;20177;-81
2024/03/03 08:21:02;;;;;;;13.33;12.93;;;24.50;1.00;;;;;;2612738;54;20171;-82
2024/03/03 08:23:28;;;;;;;13.00;12.60;;;24.70;1.00;;;;;;2609895;54;20831;-71
2024/03/03 08:25:54;;;;;;;14.03;13.63;;;24.80;1.00;;;;;;2610971;54;20463;-69
2024/03/03 08:28:19;;;;;;;12.60;12.20;;;24.70;1.00;;;;;;2610275;54;20143;-64
2024/03/03 08:30:45;;;;;;;22.80;22.00;;;24.70;1.00;;;;;;2610437;54;20198;-72
2024/03/03 08:33:11;;;;;;;22.70;21.90;;;24.70;1.00;;;;;;2611337;54;20143;-73
2024/03/03 08:35:36;;;;;;;22.30;21.50;;;24.80;1.00;;;;;;2610396;54;20230;-63
2024/03/03 08:38:02;;;;;;;23.30;22.40;;;24.80;1.00;;;;;;2609862;54;20183;-64
2024/03/03 08:40:28;;;;;;;23.90;23.00;;;24.80;1.00;;;;;;2610379;54;20167;-65
2024/03/03 08:42:54;;;;;;;23.47;22.57;;;24.80;1.00;;;;;;2610093;54;20166;-67
2024/03/03 08:45:20;;;;;;;13.97;13.57;;;24.90;1.00;;;;;;2609237;39;20516;-67
2024/03/03 08:47:45;;;;;;;14.27;13.80;;;24.80;1.00;;;;;;2610124;54;20419;-67
2024/03/03 08:50:14;;;;;;;20.33;19.63;;;24.40;1.00;;;;;;2610485;54;20163;-61
2024/03/03 08:52:39;;;;;;;17.13;16.53;;;24.30;1.00;;;;;;2610563;54;21354;-65
2024/03/03 08:55:05;;;;;;;17.73;17.13;;;24.60;1.00;;;;;;2610460;54;20409;-67
2024/03/03 08:57:31;;;;;;;18.03;17.43;;;24.80;1.00;;;;;;2610179;47;20164;-66
2024/03/03 08:59:57;;;;;;;17.07;16.47;;;24.90;1.00;;;;;;2609323;54;20464;-68
2024/03/03 09:02:23;;;;;;;17.17;16.57;;;25.00;1.00;;;;;;2609792;54;20164;-68
2024/03/03 09:04:49;;;;;;;13.33;12.93;;;25.00;1.00;;;;;;2610197;47;20413;-66
2024/03/03 09:07:15;;;;;;;13.60;13.20;;;25.00;1.00;;;;;;2610875;54;20164;-71
2024/03/03 09:09:41;;;;;;;12.70;12.30;;;25.10;1.00;;;;;;2610865;54;20838;-68
2024/03/03 09:12:07;;;;;;;12.70;12.30;;;25.10;1.00;;;;;;2612562;39;20569;-69
2024/03/03 09:14:33;;;;;;;12.70;12.30;;;25.40;1.00;;;;;;2612033;39;20517;-68
2024/03/03 09:16:59;;;;;;;12.50;12.10;;;25.40;1.00;;;;;;2612001;54;20472;-68
2024/03/03 09:19:25;;;;;;;12.80;12.40;;;25.40;1.00;;;;;;2611063;54;20393;-68
2024/03/03 09:21:51;;;;;;;14.03;13.53;;;25.40;1.00;;;;;;2611357;47;20453;-68
2024/03/03 09:24:19;;;;;;;12.80;12.40;;;25.50;1.00;;;;;;2612504;54;20528;-68
2024/03/03 09:26:46;;;;;;;12.07;11.67;;;25.50;1.00;;;;;;2614046;39;20856;-72
2024/03/03 09:29:12;;;;;;;12.20;11.80;;;25.60;1.00;;;;;;2612682;54;20411;-73
2024/03/03 09:31:38;;;;;;;11.77;11.37;;;25.60;1.00;;;;;;2613404;54;21025;-76
2024/03/03 09:34:04;;;;;;;13.50;12.90;;;25.60;1.00;;;;;;2612408;54;20472;-76
2024/03/03 09:36:30;;;;;;;14.37;13.90;;;25.70;1.00;;;;;;2611212;54;20466;-65
2024/03/03 09:38:56;;;;;;;14.37;13.97;;;25.40;1.00;;;;;;2609605;54;20416;-66
2024/03/03 09:41:21;;;;;;;8.70;8.40;;;25.30;1.00;;;;;;2609502;54;20143;-67
2024/03/03 09:44:17;;;;;;;8.70;8.40;;;25.10;1.00;;;;;;2609822;54;20165;-67
2024/03/03 09:46:43;;;;;;;20.70;20.00;;;25.00;1.00;;;;;;2609732;54;20183;-67
2024/03/03 09:49:16;;;;;;;21.20;20.50;;;25.20;1.00;;;;;;2609980;54;20472;-67
2024/03/03 09:51:47;;;;;;;21.13;20.33;;;25.30;1.00;;;;;;2609283;50;20409;-68
2024/03/03 09:54:18;;;;;;;21.80;21.00;;;25.30;1.00;;;;;;2610668;54;20472;-73
2024/03/03 09:56:46;;;;;;;22.50;21.70;;;25.10;1.00;;;;;;2609944;54;20396;-73
2024/03/03 09:59:13;;;;;;;21.43;20.63;;;25.00;1.00;;;;;;2609492;47;20467;-75
2024/03/03 10:01:39;;;;;;;17.00;16.50;;;24.90;1.00;;;;;;2609822;54;20429;-64
2024/03/03 10:04:07;;;;;;;16.57;16.07;;;24.90;1.00;;;;;;2610153;54;20467;-65
2024/03/03 10:06:38;;;;;;;15.57;15.07;;;24.90;1.00;;;;;;2610854;54;20444;-67
2024/03/03 10:09:09;;;;;;;17.50;16.90;;;25.00;1.00;;;;;;2610091;47;20425;-65
2024/03/03 10:11:37;;;;;;;16.43;15.93;;;25.00;1.00;;;;;;2611816;54;20428;-65
2024/03/03 10:14:03;;;;;;;16.80;16.30;;;25.00;1.00;;;;;;2613067;39;20834;-67
2024/03/03 10:16:33;;;;;;;17.93;17.33;;;25.10;1.00;;;;;;2611312;54;20403;-64
2024/03/03 10:19:06;;;;;;;18.70;18.10;;;25.10;1.00;;;;;;2611421;54;20434;-69
2024/03/03 10:21:37;;;;;;;17.63;17.03;;;25.00;1.00;;;;;;2611648;54;20452;-68
2024/03/03 10:24:20;;;;;;;18.40;17.80;;;25.00;1.00;;;;;;2611660;54;20406;-68
2024/03/03 10:26:46;;;;;;;18.60;18.00;;;25.00;1.00;;;;;;2611669;54;20422;-70
2024/03/03 10:29:12;;;;;;;18.20;17.60;;;24.90;1.00;;;;;;2612149;54;20396;-72
2024/03/03 10:31:38;;;;;;;18.27;17.67;;;24.80;1.00;;;;;;2612293;31;20938;-72
2024/03/03 10:34:03;;;;;;;16.90;16.40;;;24.80;1.00;;;;;;2611735;39;21167;-79
2024/03/03 10:36:32;;;;;;;16.30;15.80;;;24.70;1.00;;;;;;2611736;39;20492;-73
2024/03/03 10:38:58;;;;;;;13.53;13.13;;;24.80;1.00;;;;;;2611350;54;20162;-66
2024/03/03 10:41:23;;;;;;;15.43;14.93;;;24.70;1.00;;;;;;2612780;54;20436;-64
2024/03/03 10:43:50;;;;;;;14.67;14.17;;;25.00;1.00;;;;;;2611062;54;20145;-62
2024/03/03 10:46:18;;;;;;;15.67;15.17;;;25.10;1.00;;;;;;2612022;31;20657;-72
2024/03/03 10:48:45;;;;;;;26.63;25.43;;;25.10;1.00;;;;;;2611632;47;20404;-76
2024/03/03 10:51:19;;;;;;;8.00;7.80;;;25.20;1.00;;;;;;2612703;54;20405;-73
2024/03/03 10:53:45;;;;;;;8.10;7.87;;;25.20;1.00;;;;;;2612609;54;20440;-72
2024/03/03 10:56:12;;;;;;;21.93;21.23;;;25.20;1.00;;;;;;2611956;54;20434;-74
2024/03/03 10:58:38;;;;;;;24.60;23.70;;;25.30;1.00;;;;;;2611710;54;20415;-74
2024/03/03 11:01:05;;;;;;;20.92;20.23;;;25.30;1.00;;;;;;2610003;54;21074;-67
2024/03/03 11:03:32;;;;;;;18.87;18.27;;;25.30;1.00;;;;;;2610259;54;20586;-67
2024/03/03 11:05:59;;;;;;;22.17;21.37;;;25.10;1.00;;;;;;2611897;54;20452;-71
2024/03/03 11:08:25;;;;;;;20.67;19.97;;;24.90;1.00;;;;;;2612272;54;20476;-72
2024/03/03 11:11:02;;;;;;;7.00;6.80;;;24.90;1.00;;;;;;2612166;39;21126;-73
2024/03/03 11:13:31;;;;;;;7.33;7.13;;;24.90;1.00;;;;;;2612578;54;20415;-70
2024/03/03 11:16:02;;;;;;;8.20;7.93;;;24.80;1.00;;;;;;2611534;54;20478;-73
2024/03/03 11:18:32;;;;;;;9.40;9.10;;;24.90;1.00;;;;;;2612677;47;20455;-75
2024/03/03 11:21:03;;;;;;;10.00;9.70;;;24.80;1.00;;;;;;2612362;54;20393;-75
2024/03/03 11:23:48;;;;;;;10.10;9.80;;;24.80;1.00;;;;;;2612853;54;20434;-78
2024/03/03 11:26:27;;;;;;;4.87;4.67;;;24.80;1.00;;;;;;2612477;54;20456;-76
2024/03/03 11:29:00;;;;;;;4.80;4.70;;;24.90;1.00;;;;;;2612987;47;20419;-68
2024/03/03 11:31:29;;;;;;;10.30;10.00;;;25.10;1.00;;;;;;2611282;54;20427;-65
2024/03/03 11:33:55;;;;;;;9.77;9.47;;;25.20;1.00;;;;;;2610940;54;20410;-62
2024/03/03 11:36:22;;;;;;;10.00;9.70;;;25.30;1.00;;;;;;2609958;54;20434;-62
2024/03/03 11:38:48;;;;;;;15.30;14.80;;;25.20;1.00;;;;;;2611037;54;20986;-62
2024/03/03 11:41:17;;;;;;;16.73;16.23;;;25.30;1.00;;;;;;2610968;54;20501;-61
2024/03/03 11:43:43;;;;;;;16.00;15.50;;;25.40;1.00;;;;;;2611118;54;20167;-61
2024/03/03 11:46:09;;;;;;;15.67;15.17;;;25.40;1.00;;;;;;2611905;47;20414;-61
2024/03/03 11:48:36;;;;;;;17.93;17.37;;;25.40;1.00;;;;;;2611571;50;20499;-62
2024/03/03 11:51:23;;;;;;;17.60;17.10;;;25.30;1.00;;;;;;2611360;39;20880;-60
2024/03/03 11:54:03;;;;;;;17.50;17.00;;;25.30;1.00;;;;;;2611503;54;22745;-61
2024/03/03 11:56:30;;;;;;;11.50;11.20;;;25.30;1.00;;;;;;2612310;54;20418;-59
2024/03/03 11:58:56;;;;;;;16.97;16.47;;;25.30;1.00;;;;;;2609233;54;20408;-64
2024/03/03 12:01:22;;;;;;;16.20;15.70;;;25.10;1.00;;;;;;2607503;54;20414;-65
2024/03/03 12:03:48;;;;;;;2.10;2.00;;;24.70;1.00;;;;;;2608765;51;20436;-62
2024/03/03 12:06:18;;;;;;;0.90;0.90;;;24.70;1.00;;;;;;2609177;54;20402;-67
2024/03/03 12:08:52;;;;;;;0.90;0.90;;;24.80;1.00;;;;;;2607609;54;20945;-68
2024/03/03 12:11:19;;;;;;;0.80;0.80;;;24.70;1.00;;;;;;2608711;47;20430;-68
2024/03/03 12:13:44;;;;;;;0.90;0.90;;;24.50;1.00;;;;;;2608390;47;20411;-68
2024/03/03 12:16:10;;;;;;;0.90;0.90;;;24.30;1.00;;;;;;2608299;54;20504;-67
2024/03/03 12:18:35;;;;;;;0.87;0.87;;;24.20;1.00;;;;;;2607952;54;20213;-71
2024/03/03 12:21:01;;;;;;;0.80;0.80;;;24.20;1.00;;;;;;2608610;54;20164;-70
2024/03/03 12:23:28;;;;;;;0.90;0.90;;;24.10;1.00;;;;;;2608238;54;20184;-70
2024/03/03 12:25:54;;;;;;;0.90;0.90;;;24.10;1.00;;;;;;2608904;54;20408;-70
2024/03/03 12:28:24;;;;;;;0.77;0.77;;;24.00;1.00;;;;;;2608995;54;20504;-70
2024/03/03 12:30:50;;;;;;;0.90;0.90;;;24.00;1.00;;;;;;2608917;47;21256;-71
2024/03/03 12:33:17;;;;;;;0.90;0.90;;;24.00;1.00;;;;;;2609273;54;20405;-70
2024/03/03 12:35:45;;;;;;;0.80;0.80;;;24.00;1.00;;;;;;2610213;54;21093;-70
2024/03/03 12:38:11;;;;;;;1.00;1.00;;;24.00;1.00;;;;;;2610452;54;20483;-70